sensor_id;sensor_type;location;lat;lon;timestamp;pressure;altitude;pressure_sealevel;temperature;humidity
45345;BME280;31078;48.304;11.896;2022-12-24T00:00:36;95666.34;;;10.22;98.75
45345;BME280;31078;48.304;11.896;2022-12-24T00:03:02;95674.50;;;10.22;98.68
45345;BME280;31078;48.304;11.896;2022-12-24T00:05:29;95671.19;;;10.16;99.04
45345;BME280;31078;48.304;11.896;2022-12-24T00:07:55;95678.09;;;10.13;99.38
45345;BME280;31078;48.304;11.896;2022-12-24T00:10:22;95681.47;;;10.10;99.55
45345;BME280;31078;48.304;11.896;2022-12-24T00:12:49;95691.03;;;10.16;99.91
45345;BME280;31078;48.304;11.896;2022-12-24T00:15:16;95702.28;;;10.06;100.00
45345;BME280;31078;48.304;11.896;2022-12-24T00:17:43;95697.44;;;10.12;100.00
45345;BME280;31078;48.304;11.896;2022-12-24T00:20:09;95685.97;;;10.06;100.00
45345;BME280;31078;48.304;11.896;2022-12-24T00:22:36;95695.00;;;9.98;99.22
45345;BME280;31078;48.304;11.896;2022-12-24T00:25:05;95705.91;;;9.89;98.84
45345;BME280;31078;48.304;11.896;2022-12-24T00:27:32;95702.94;;;9.82;98.28
45345;BME280;31078;48.304;11.896;2022-12-24T00:29:59;95714.72;;;9.86;96.51
45345;BME280;31078;48.304;11.896;2022-12-24T00:32:26;95714.03;;;9.68;97.90
45345;BME280;31078;48.304;11.896;2022-12-24T00:34:52;95696.22;;;9.50;98.64
45345;BME280;31078;48.304;11.896;2022-12-24T00:37:19;95712.22;;;9.43;99.21
45345;BME280;31078;48.304;11.896;2022-12-24T00:39:45;95709.56;;;9.34;100.00
45345;BME280;31078;48.304;11.896;2022-12-24T00:42:12;95705.28;;;9.25;100.00
45345;BME280;31078;48.304;11.896;2022-12-24T00:44:38;95704.16;;;9.26;100.00
45345;BME280;31078;48.304;11.896;2022-12-24T00:47:06;95705.72;;;9.27;99.62
45345;BME280;31078;48.304;11.896;2022-12-24T00:49:32;95712.75;;;9.28;98.78
45345;BME280;31078;48.304;11.896;2022-12-24T00:51:59;95712.06;;;9.39;97.68
45345;BME280;31078;48.304;11.896;2022-12-24T00:54:27;95712.06;;;9.39;98.24
45345;BME280;31078;48.304;11.896;2022-12-24T00:56:53;95709.69;;;9.38;99.30
45345;BME280;31078;48.304;11.896;2022-12-24T00:59:20;95713.38;;;9.33;100.00
45345;BME280;31078;48.304;11.896;2022-12-24T01:01:47;95721.84;;;9.32;100.00
45345;BME280;31078;48.304;11.896;2022-12-24T01:04:14;95720.72;;;9.33;100.00
45345;BME280;31078;48.304;11.896;2022-12-24T01:06:58;95735.13;;;9.33;100.00
45345;BME280;31078;48.304;11.896;2022-12-24T01:09:25;95741.34;;;9.34;100.00
45345;BME280;31078;48.304;11.896;2022-12-24T01:11:51;95746.78;;;9.34;100.00
45345;BME280;31078;48.304;11.896;2022-12-24T01:14:18;95749.50;;;9.34;100.00
45345;BME280;31078;48.304;11.896;2022-12-24T01:16:44;95754.00;;;9.30;100.00
45345;BME280;31078;48.304;11.896;2022-12-24T01:19:11;95761.66;;;9.28;100.00
45345;BME280;31078;48.304;11.896;2022-12-24T01:21:39;95757.34;;;9.27;100.00
45345;BME280;31078;48.304;11.896;2022-12-24T01:24:05;95748.91;;;9.20;100.00
45345;BME280;31078;48.304;11.896;2022-12-24T01:26:32;95757.81;;;9.29;100.00
45345;BME280;31078;48.304;11.896;2022-12-24T01:28:58;95765.03;;;9.25;100.00
45345;BME280;31078;48.304;11.896;2022-12-24T01:31:25;95760.25;;;9.22;100.00
45345;BME280;31078;48.304;11.896;2022-12-24T01:33:51;95764.72;;;9.18;100.00
45345;BME280;31078;48.304;11.896;2022-12-24T01:36:18;95763.13;;;9.17;100.00
45345;BME280;31078;48.304;11.896;2022-12-24T01:38:46;95761.84;;;9.23;100.00
45345;BME280;31078;48.304;11.896;2022-12-24T01:41:14;95768.56;;;9.25;100.00
45345;BME280;31078;48.304;11.896;2022-12-24T01:44:20;95778.13;;;9.23;100.00
45345;BME280;31078;48.304;11.896;2022-12-24T01:46:52;95778.78;;;9.20;100.00
45345;BME280;31078;48.304;11.896;2022-12-24T01:49:21;95789.84;;;9.14;100.00
45345;BME280;31078;48.304;11.896;2022-12-24T01:51:50;95795.91;;;9.11;100.00
45345;BME280;31078;48.304;11.896;2022-12-24T01:54:23;95798.63;;;9.11;100.00
45345;BME280;31078;48.304;11.896;2022-12-24T01:56:53;95801.81;;;9.13;100.00
45345;BME280;31078;48.304;11.896;2022-12-24T01:59:21;95802.91;;;9.12;100.00
45345;BME280;31078;48.304;11.896;2022-12-24T02:01:49;95810.13;;;9.08;100.00
45345;BME280;31078;48.304;11.896;2022-12-24T02:04:25;95808.22;;;9.00;100.00
45345;BME280;31078;48.304;11.896;2022-12-24T02:06:53;95810.75;;;9.05;100.00
45345;BME280;31078;48.304;11.896;2022-12-24T02:09:21;95800.88;;;9.01;100.00
45345;BME280;31078;48.304;11.896;2022-12-24T02:11:48;95805.50;;;9.00;100.00
45345;BME280;31078;48.304;11.896;2022-12-24T02:14:15;95806.47;;;8.96;100.00
45345;BME280;31078;48.304;11.896;2022-12-24T02:16:48;95815.56;;;8.91;100.00
45345;BME280;31078;48.304;11.896;2022-12-24T02:22:13;95828.81;;;9.01;100.00
45345;BME280;31078;48.304;11.896;2022-12-24T02:25:01;95826.25;;;9.05;100.00
45345;BME280;31078;48.304;11.896;2022-12-24T02:27:46;95834.75;;;9.03;100.00
45345;BME280;31078;48.304;11.896;2022-12-24T02:30:21;95827.84;;;9.06;100.00
45345;BME280;31078;48.304;11.896;2022-12-24T02:33:01;95826.72;;;9.15;100.00
45345;BME280;31078;48.304;11.896;2022-12-24T02:35:36;95834.72;;;9.12;99.45
45345;BME280;31078;48.304;11.896;2022-12-24T02:38:13;95836.47;;;9.17;99.64
45345;BME280;31078;48.304;11.896;2022-12-24T02:40:45;95840.94;;;9.12;99.20
45345;BME280;31078;48.304;11.896;2022-12-24T02:43:16;95852.94;;;9.20;99.22
45345;BME280;31078;48.304;11.896;2022-12-24T02:45:47;95844.94;;;9.15;98.61
45345;BME280;31078;48.304;11.896;2022-12-24T02:48:17;95847.16;;;9.22;98.20
45345;BME280;31078;48.304;11.896;2022-12-24T02:50:56;95851.47;;;9.23;97.95
45345;BME280;31078;48.304;11.896;2022-12-24T02:53:23;95845.75;;;9.24;97.49
45345;BME280;31078;48.304;11.896;2022-12-24T02:55:59;95855.16;;;9.27;96.89
45345;BME280;31078;48.304;11.896;2022-12-24T02:58:38;95856.59;;;9.33;96.91
45345;BME280;31078;48.304;11.896;2022-12-24T03:01:16;95865.56;;;9.25;96.83
45345;BME280;31078;48.304;11.896;2022-12-24T03:03:52;95860.59;;;9.27;96.69
45345;BME280;31078;48.304;11.896;2022-12-24T03:06:30;95870.66;;;9.35;95.98
45345;BME280;31078;48.304;11.896;2022-12-24T03:09:03;95858.34;;;9.29;95.54
45345;BME280;31078;48.304;11.896;2022-12-24T03:11:35;95855.00;;;9.32;95.18
45345;BME280;31078;48.304;11.896;2022-12-24T03:14:03;95851.31;;;9.28;95.21
45345;BME280;31078;48.304;11.896;2022-12-24T03:16:31;95844.94;;;9.24;95.09
45345;BME280;31078;48.304;11.896;2022-12-24T03:18:58;95852.28;;;9.32;93.74
45345;BME280;31078;48.304;11.896;2022-12-24T03:21:28;95854.81;;;9.37;93.66
45345;BME280;31078;48.304;11.896;2022-12-24T03:23:56;95855.47;;;9.34;93.17
45345;BME280;31078;48.304;11.896;2022-12-24T03:26:23;95862.50;;;9.35;92.78
45345;BME280;31078;48.304;11.896;2022-12-24T03:28:51;95866.66;;;9.32;92.83
45345;BME280;31078;48.304;11.896;2022-12-24T03:31:17;95872.25;;;9.27;92.68
45345;BME280;31078;48.304;11.896;2022-12-24T03:33:46;95870.50;;;9.23;92.96
45345;BME280;31078;48.304;11.896;2022-12-24T03:36:13;95880.91;;;9.21;93.01
45345;BME280;31078;48.304;11.896;2022-12-24T03:38:39;95896.69;;;9.19;92.83
45345;BME280;31078;48.304;11.896;2022-12-24T03:41:06;95901.19;;;9.32;92.11
45345;BME280;31078;48.304;11.896;2022-12-24T03:43:33;95905.03;;;9.31;91.33
45345;BME280;31078;48.304;11.896;2022-12-24T03:46:02;95901.81;;;9.29;91.43
45345;BME280;31078;48.304;11.896;2022-12-24T03:48:29;95904.22;;;9.30;91.14
45345;BME280;31078;48.304;11.896;2022-12-24T03:50:57;95904.22;;;9.30;90.78
45345;BME280;31078;48.304;11.896;2022-12-24T03:53:23;95900.38;;;9.31;90.50
45345;BME280;31078;48.304;11.896;2022-12-24T03:55:50;95912.06;;;9.32;90.18
45345;BME280;31078;48.304;11.896;2022-12-24T03:58:16;95900.06;;;9.33;90.13
45345;BME280;31078;48.304;11.896;2022-12-24T04:00:43;95897.34;;;9.33;89.22
45345;BME280;31078;48.304;11.896;2022-12-24T04:03:09;95895.44;;;9.42;88.54
45345;BME280;31078;48.304;11.896;2022-12-24T04:05:36;95901.31;;;9.44;87.64
45345;BME280;31078;48.304;11.896;2022-12-24T04:08:06;95909.47;;;9.44;88.17
45345;BME280;31078;48.304;11.896;2022-12-24T04:10:32;95914.63;;;9.46;88.10
45345;BME280;31078;48.304;11.896;2022-12-24T04:12:59;95920.50;;;9.48;87.25
45345;BME280;31078;48.304;11.896;2022-12-24T04:15:26;95918.59;;;9.39;87.94
45345;BME280;31078;48.304;11.896;2022-12-24T04:17:53;95923.56;;;9.46;86.96
45345;BME280;31078;48.304;11.896;2022-12-24T04:20:20;95920.50;;;9.48;86.82
45345;BME280;31078;48.304;11.896;2022-12-24T04:22:46;95931.56;;;9.51;86.53
45345;BME280;31078;48.304;11.896;2022-12-24T04:25:14;95930.75;;;9.51;86.93
45345;BME280;31078;48.304;11.896;2022-12-24T04:27:41;95926.75;;;9.48;86.90
45345;BME280;31078;48.304;11.896;2022-12-24T04:30:08;95932.50;;;9.47;87.16
45345;BME280;31078;48.304;11.896;2022-12-24T04:32:34;95934.91;;;9.48;87.19
45345;BME280;31078;48.304;11.896;2022-12-24T04:35:01;95947.06;;;9.51;87.25
45345;BME280;31078;48.304;11.896;2022-12-24T04:37:27;95937.00;;;9.51;87.20
45345;BME280;31078;48.304;11.896;2022-12-24T04:39:54;95951.03;;;9.53;86.96
45345;BME280;31078;48.304;11.896;2022-12-24T04:42:22;95953.94;;;9.48;86.89
45345;BME280;31078;48.304;11.896;2022-12-24T04:44:49;95955.22;;;9.51;86.38
45345;BME280;31078;48.304;11.896;2022-12-24T04:47:15;95945.44;;;9.50;87.01
45345;BME280;31078;48.304;11.896;2022-12-24T04:49:42;95943.06;;;9.48;86.97
45345;BME280;31078;48.304;11.896;2022-12-24T04:52:08;95942.59;;;9.46;87.08
45345;BME280;31078;48.304;11.896;2022-12-24T04:54:35;95942.09;;;9.44;86.98
45345;BME280;31078;48.304;11.896;2022-12-24T04:57:01;95952.34;;;9.47;86.98
45345;BME280;31078;48.304;11.896;2022-12-24T04:59:29;95956.19;;;9.46;87.18
45345;BME280;31078;48.304;11.896;2022-12-24T05:01:56;95962.25;;;9.43;87.34
45345;BME280;31078;48.304;11.896;2022-12-24T05:04:22;95968.63;;;9.47;87.16
45345;BME280;31078;48.304;11.896;2022-12-24T05:06:48;95968.63;;;9.47;87.04
45345;BME280;31078;48.304;11.896;2022-12-24T05:09:15;95969.28;;;9.53;87.08
45345;BME280;31078;48.304;11.896;2022-12-24T05:11:41;95977.44;;;9.53;86.24
45345;BME280;31078;48.304;11.896;2022-12-24T05:14:08;95979.34;;;9.52;86.69
45345;BME280;31078;48.304;11.896;2022-12-24T05:16:36;95977.09;;;9.54;86.41
45345;BME280;31078;48.304;11.896;2022-12-24T05:19:03;95973.44;;;9.50;86.94
45345;BME280;31078;48.304;11.896;2022-12-24T05:21:29;95980.16;;;9.53;86.82
45345;BME280;31078;48.304;11.896;2022-12-24T05:23:56;95977.25;;;9.49;87.34
45345;BME280;31078;48.304;11.896;2022-12-24T05:26:41;95982.38;;;9.42;88.22
45345;BME280;31078;48.304;11.896;2022-12-24T05:29:10;95979.03;;;9.36;88.68
45345;BME280;31078;48.304;11.896;2022-12-24T05:31:40;95969.91;;;9.32;89.76
45345;BME280;31078;48.304;11.896;2022-12-24T05:34:07;95999.47;;;9.25;91.18
45345;BME280;31078;48.304;11.896;2022-12-24T05:36:33;95993.50;;;8.97;94.33
45345;BME280;31078;48.304;11.896;2022-12-24T05:39:00;95978.47;;;8.82;96.23
45345;BME280;31078;48.304;11.896;2022-12-24T05:41:26;95987.53;;;8.69;97.56
45345;BME280;31078;48.304;11.896;2022-12-24T05:43:53;95995.53;;;8.74;95.58
45345;BME280;31078;48.304;11.896;2022-12-24T05:46:21;96001.13;;;8.78;95.97
45345;BME280;31078;48.304;11.896;2022-12-24T05:48:50;96008.63;;;8.81;95.88
45345;BME280;31078;48.304;11.896;2022-12-24T05:51:18;96017.25;;;8.74;96.12
45345;BME280;31078;48.304;11.896;2022-12-24T05:53:46;96011.78;;;8.66;96.95
45345;BME280;31078;48.304;11.896;2022-12-24T05:56:15;96026.16;;;8.66;97.61
45345;BME280;31078;48.304;11.896;2022-12-24T05:58:42;96045.00;;;8.62;97.78
45345;BME280;31078;48.304;11.896;2022-12-24T06:01:10;96049.56;;;8.53;98.93
45345;BME280;31078;48.304;11.896;2022-12-24T06:03:36;96052.41;;;8.48;100.00
45345;BME280;31078;48.304;11.896;2022-12-24T06:06:07;96054.94;;;8.45;97.93
45345;BME280;31078;48.304;11.896;2022-12-24T06:08:34;96064.41;;;8.25;93.35
45345;BME280;31078;48.304;11.896;2022-12-24T06:11:04;96057.72;;;7.86;95.62
45345;BME280;31078;48.304;11.896;2022-12-24T06:13:31;96055.31;;;7.62;98.62
45345;BME280;31078;48.304;11.896;2022-12-24T06:16:00;96054.28;;;7.36;100.00
45345;BME280;31078;48.304;11.896;2022-12-24T06:18:27;96065.75;;;7.19;100.00
45345;BME280;31078;48.304;11.896;2022-12-24T06:20:56;96069.75;;;7.07;100.00
45345;BME280;31078;48.304;11.896;2022-12-24T06:23:24;96052.94;;;7.11;100.00
45345;BME280;31078;48.304;11.896;2022-12-24T06:25:51;96047.91;;;7.18;100.00
45345;BME280;31078;48.304;11.896;2022-12-24T06:28:17;96052.13;;;7.10;100.00
45345;BME280;31078;48.304;11.896;2022-12-24T06:30:45;96042.69;;;7.07;100.00
45345;BME280;31078;48.304;11.896;2022-12-24T06:33:12;96043.28;;;7.04;100.00
45345;BME280;31078;48.304;11.896;2022-12-24T06:35:39;96048.69;;;7.04;100.00
45345;BME280;31078;48.304;11.896;2022-12-24T06:38:07;96058.44;;;7.05;100.00
45345;BME280;31078;48.304;11.896;2022-12-24T06:40:36;96054.44;;;7.03;100.00
45345;BME280;31078;48.304;11.896;2022-12-24T06:43:03;96072.00;;;7.05;100.00
45345;BME280;31078;48.304;11.896;2022-12-24T06:45:29;96075.88;;;7.13;100.00
45345;BME280;31078;48.304;11.896;2022-12-24T06:47:56;96085.81;;;7.18;100.00
45345;BME280;31078;48.304;11.896;2022-12-24T06:50:24;96080.19;;;7.28;100.00
45345;BME280;31078;48.304;11.896;2022-12-24T06:52:51;96086.59;;;7.32;100.00
45345;BME280;31078;48.304;11.896;2022-12-24T06:55:18;96086.97;;;7.39;100.00
45345;BME280;31078;48.304;11.896;2022-12-24T06:57:46;96091.19;;;7.45;100.00
45345;BME280;31078;48.304;11.896;2022-12-24T07:00:13;96089.16;;;7.51;100.00
45345;BME280;31078;48.304;11.896;2022-12-24T07:02:40;96089.94;;;7.51;100.00
45345;BME280;31078;48.304;11.896;2022-12-24T07:05:07;96098.59;;;7.53;100.00
45345;BME280;31078;48.304;11.896;2022-12-24T07:07:36;96099.59;;;7.57;100.00
45345;BME280;31078;48.304;11.896;2022-12-24T07:10:03;96097.84;;;7.62;100.00
45345;BME280;31078;48.304;11.896;2022-12-24T07:12:31;96109.22;;;7.64;100.00
45345;BME280;31078;48.304;11.896;2022-12-24T07:14:59;96103.97;;;7.67;100.00
45345;BME280;31078;48.304;11.896;2022-12-24T07:17:25;96115.63;;;7.68;100.00
45345;BME280;31078;48.304;11.896;2022-12-24T07:19:52;96114.69;;;7.72;100.00
45345;BME280;31078;48.304;11.896;2022-12-24T07:22:18;96117.59;;;7.76;100.00
45345;BME280;31078;48.304;11.896;2022-12-24T07:24:45;96116.22;;;7.78;100.00
45345;BME280;31078;48.304;11.896;2022-12-24T07:27:11;96121.00;;;7.81;100.00
45345;BME280;31078;48.304;11.896;2022-12-24T07:29:38;96121.00;;;7.81;100.00
45345;BME280;31078;48.304;11.896;2022-12-24T07:32:06;96133.97;;;7.84;100.00
45345;BME280;31078;48.304;11.896;2022-12-24T07:34:33;96132.03;;;7.85;100.00
45345;BME280;31078;48.304;11.896;2022-12-24T07:37:00;96129.34;;;7.85;100.00
45345;BME280;31078;48.304;11.896;2022-12-24T07:39:26;96134.28;;;7.83;100.00
45345;BME280;31078;48.304;11.896;2022-12-24T07:41:53;96139.88;;;7.87;100.00
45345;BME280;31078;48.304;11.896;2022-12-24T07:44:19;96142.25;;;7.88;100.00
45345;BME280;31078;48.304;11.896;2022-12-24T07:46:46;96145.47;;;7.90;100.00
45345;BME280;31078;48.304;11.896;2022-12-24T07:49:14;96145.47;;;7.90;100.00
45345;BME280;31078;48.304;11.896;2022-12-24T07:51:40;96148.50;;;7.89;100.00
45345;BME280;31078;48.304;11.896;2022-12-24T07:54:07;96150.00;;;7.95;100.00
45345;BME280;31078;48.304;11.896;2022-12-24T07:56:33;96155.69;;;7.93;100.00
45345;BME280;31078;48.304;11.896;2022-12-24T07:59:00;96151.72;;;7.77;100.00
45345;BME280;31078;48.304;11.896;2022-12-24T08:01:26;96154.75;;;7.62;100.00
45345;BME280;31078;48.304;11.896;2022-12-24T08:03:53;96163.41;;;7.64;100.00
45345;BME280;31078;48.304;11.896;2022-12-24T08:06:21;96167.63;;;7.70;100.00
45345;BME280;31078;48.304;11.896;2022-12-24T08:08:48;96162.69;;;7.72;100.00
45345;BME280;31078;48.304;11.896;2022-12-24T08:11:14;96163.78;;;7.71;100.00
45345;BME280;31078;48.304;11.896;2022-12-24T08:13:41;96175.16;;;7.73;100.00
45345;BME280;31078;48.304;11.896;2022-12-24T08:16:07;96171.22;;;7.79;99.65
45345;BME280;31078;48.304;11.896;2022-12-24T08:18:34;96172.41;;;7.87;96.88
45345;BME280;31078;48.304;11.896;2022-12-24T08:21:00;96174.56;;;7.98;93.87
45345;BME280;31078;48.304;11.896;2022-12-24T08:23:28;96179.38;;;8.01;92.22
45345;BME280;31078;48.304;11.896;2022-12-24T08:25:54;96182.59;;;8.03;91.03
45345;BME280;31078;48.304;11.896;2022-12-24T08:28:21;96170.53;;;8.09;89.65
45345;BME280;31078;48.304;11.896;2022-12-24T08:30:49;96187.19;;;8.17;88.08
45345;BME280;31078;48.304;11.896;2022-12-24T08:33:16;96193.28;;;8.22;87.30
45345;BME280;31078;48.304;11.896;2022-12-24T08:35:46;96201.63;;;8.26;86.88
45345;BME280;31078;48.304;11.896;2022-12-24T08:38:12;96196.69;;;8.28;86.19
45345;BME280;31078;48.304;11.896;2022-12-24T08:40:40;96199.28;;;8.33;85.18
45345;BME280;31078;48.304;11.896;2022-12-24T08:43:07;96201.44;;;8.36;85.10
45345;BME280;31078;48.304;11.896;2022-12-24T08:45:34;96201.00;;;8.43;84.24
45345;BME280;31078;48.304;11.896;2022-12-24T08:48:01;96203.78;;;8.51;84.21
45345;BME280;31078;48.304;11.896;2022-12-24T08:50:27;96208.38;;;8.51;83.84
45345;BME280;31078;48.304;11.896;2022-12-24T08:52:53;96205.72;;;8.59;83.39
45345;BME280;31078;48.304;11.896;2022-12-24T08:55:20;96213.88;;;8.59;83.28
45345;BME280;31078;48.304;11.896;2022-12-24T08:57:48;96219.31;;;8.59;83.67
45345;BME280;31078;48.304;11.896;2022-12-24T09:00:15;96222.34;;;8.58;83.77
45345;BME280;31078;48.304;11.896;2022-12-24T09:02:41;96227.44;;;8.59;82.39
45345;BME280;31078;48.304;11.896;2022-12-24T09:05:08;96232.88;;;8.59;83.11
45345;BME280;31078;48.304;11.896;2022-12-24T09:07:35;96234.47;;;8.60;82.88
45345;BME280;31078;48.304;11.896;2022-12-24T09:10:02;96229.44;;;8.68;82.61
45345;BME280;31078;48.304;11.896;2022-12-24T09:12:29;96238.06;;;8.70;80.96
45345;BME280;31078;48.304;11.896;2022-12-24T09:14:57;96232.03;;;8.73;80.30
45345;BME280;31078;48.304;11.896;2022-12-24T09:17:23;96229.19;;;8.78;80.36
45345;BME280;31078;48.304;11.896;2022-12-24T09:19:50;96236.22;;;8.79;80.50
45345;BME280;31078;48.304;11.896;2022-12-24T09:22:16;96236.22;;;8.79;79.62
45345;BME280;31078;48.304;11.896;2022-12-24T09:24:43;96242.44;;;8.79;80.76
45345;BME280;31078;48.304;11.896;2022-12-24T09:27:09;96244.03;;;8.80;80.39
45345;BME280;31078;48.304;11.896;2022-12-24T09:29:36;96254.09;;;8.80;80.79
45345;BME280;31078;48.304;11.896;2022-12-24T09:32:06;96242.75;;;8.78;80.47
45345;BME280;31078;48.304;11.896;2022-12-24T09:34:33;96253.50;;;8.83;80.47
45345;BME280;31078;48.304;11.896;2022-12-24T09:36:59;96260.97;;;8.77;80.94
45345;BME280;31078;48.304;11.896;2022-12-24T09:39:27;96265.97;;;8.84;80.87
45345;BME280;31078;48.304;11.896;2022-12-24T09:41:59;96261.00;;;8.86;80.05
45345;BME280;31078;48.304;11.896;2022-12-24T09:44:37;96262.13;;;8.85;80.20
45345;BME280;31078;48.304;11.896;2022-12-24T09:47:13;96262.94;;;8.85;78.78
45345;BME280;31078;48.304;11.896;2022-12-24T09:49:45;96273.75;;;8.99;78.75
45345;BME280;31078;48.304;11.896;2022-12-24T09:52:16;96258.06;;;8.96;78.45
45345;BME280;31078;48.304;11.896;2022-12-24T09:54:52;96267.31;;;8.95;77.69
45345;BME280;31078;48.304;11.896;2022-12-24T09:57:25;96264.16;;;9.02;77.32
45345;BME280;31078;48.304;11.896;2022-12-24T09:59:54;96277.38;;;8.95;76.58
45345;BME280;31078;48.304;11.896;2022-12-24T10:02:22;96266.97;;;8.88;76.36
45345;BME280;31078;48.304;11.896;2022-12-24T10:04:48;96275.59;;;8.90;77.08
45345;BME280;31078;48.304;11.896;2022-12-24T10:07:26;96268.56;;;8.89;77.15
45345;BME280;31078;48.304;11.896;2022-12-24T10:10:02;96282.50;;;8.96;76.34
45345;BME280;31078;48.304;11.896;2022-12-24T10:12:38;96280.41;;;8.93;75.90
45345;BME280;31078;48.304;11.896;2022-12-24T10:15:12;96283.00;;;8.98;77.07
45345;BME280;31078;48.304;11.896;2022-12-24T10:17:51;96288.44;;;8.98;77.32
45345;BME280;31078;48.304;11.896;2022-12-24T10:20:29;96277.25;;;9.00;75.17
45345;BME280;31078;48.304;11.896;2022-12-24T10:23:02;96279.97;;;9.00;75.51
45345;BME280;31078;48.304;11.896;2022-12-24T10:25:35;96274.72;;;9.03;75.64
45345;BME280;31078;48.304;11.896;2022-12-24T10:28:13;96289.88;;;9.27;74.90
45345;BME280;31078;48.304;11.896;2022-12-24T10:30:40;96280.59;;;9.59;73.85
45345;BME280;31078;48.304;11.896;2022-12-24T10:33:14;96280.28;;;9.52;73.67
45345;BME280;31078;48.304;11.896;2022-12-24T10:35:45;96282.41;;;9.63;73.09
45345;BME280;31078;48.304;11.896;2022-12-24T10:38:13;96294.53;;;9.57;70.40
45345;BME280;31078;48.304;11.896;2022-12-24T10:40:42;96298.97;;;9.53;72.38
45345;BME280;31078;48.304;11.896;2022-12-24T10:43:13;96279.47;;;9.51;72.41
45345;BME280;31078;48.304;11.896;2022-12-24T10:45:43;96284.25;;;9.54;72.35
45345;BME280;31078;48.304;11.896;2022-12-24T10:48:16;96297.56;;;9.56;72.04
45345;BME280;31078;48.304;11.896;2022-12-24T10:50:51;96285.72;;;9.60;71.02
45345;BME280;31078;48.304;11.896;2022-12-24T10:53:22;96286.75;;;9.73;71.78
45345;BME280;31078;48.304;11.896;2022-12-24T10:55:50;96292.28;;;9.99;70.82
45345;BME280;31078;48.304;11.896;2022-12-24T10:58:25;96298.75;;;10.20;69.42
45345;BME280;31078;48.304;11.896;2022-12-24T11:00:53;96299.94;;;10.37;69.33
45345;BME280;31078;48.304;11.896;2022-12-24T11:03:29;96293.19;;;10.26;68.58
45345;BME280;31078;48.304;11.896;2022-12-24T11:06:06;96295.38;;;10.15;68.52
45345;BME280;31078;48.304;11.896;2022-12-24T11:08:34;96299.38;;;10.17;70.46
45345;BME280;31078;48.304;11.896;2022-12-24T11:11:03;96301.28;;;10.08;68.49
45345;BME280;31078;48.304;11.896;2022-12-24T11:13:32;96296.50;;;10.23;67.25
45345;BME280;31078;48.304;11.896;2022-12-24T11:16:02;96291.69;;;10.11;67.81
45345;BME280;31078;48.304;11.896;2022-12-24T11:18:31;96307.91;;;10.25;66.96
45345;BME280;31078;48.304;11.896;2022-12-24T11:20:58;96292.72;;;10.24;66.54
45345;BME280;31078;48.304;11.896;2022-12-24T11:23:26;96297.28;;;10.14;66.74
45345;BME280;31078;48.304;11.896;2022-12-24T11:25:55;96294.06;;;10.12;67.08
45345;BME280;31078;48.304;11.896;2022-12-24T11:28:24;96292.72;;;10.24;67.06
45345;BME280;31078;48.304;11.896;2022-12-24T11:30:57;96290.41;;;10.17;67.04
45345;BME280;31078;48.304;11.896;2022-12-24T11:33:25;96284.47;;;10.06;66.45
45345;BME280;31078;48.304;11.896;2022-12-24T11:35:56;96286.19;;;10.02;66.95
45345;BME280;31078;48.304;11.896;2022-12-24T11:38:26;96291.16;;;10.00;67.80
45345;BME280;31078;48.304;11.896;2022-12-24T11:41:05;96281.09;;;10.01;67.92
45345;BME280;31078;48.304;11.896;2022-12-24T11:43:50;96290.03;;;10.01;67.69
45345;BME280;31078;48.304;11.896;2022-12-24T11:46:35;96284.94;;;10.00;67.76
45345;BME280;31078;48.304;11.896;2022-12-24T11:49:05;96288.13;;;9.93;67.65
45345;BME280;31078;48.304;11.896;2022-12-24T11:51:57;96292.09;;;9.96;67.79
45345;BME280;31078;48.304;11.896;2022-12-24T11:54:28;96294.53;;;9.97;68.72
45345;BME280;31078;48.304;11.896;2022-12-24T11:56:57;96296.28;;;9.93;68.15
45345;BME280;31078;48.304;11.896;2022-12-24T11:59:30;96296.56;;;9.83;68.26
45345;BME280;31078;48.304;11.896;2022-12-24T12:02:01;96280.84;;;9.80;68.48
45345;BME280;31078;48.304;11.896;2022-12-24T12:04:30;96279.41;;;9.74;68.63
45345;BME280;31078;48.304;11.896;2022-12-24T12:07:02;96271.25;;;9.74;69.07
45345;BME280;31078;48.304;11.896;2022-12-24T12:09:31;96274.28;;;9.72;70.35
45345;BME280;31078;48.304;11.896;2022-12-24T12:12:01;96270.91;;;9.66;69.79
45345;BME280;31078;48.304;11.896;2022-12-24T12:14:34;96276.34;;;9.66;69.55
45345;BME280;31078;48.304;11.896;2022-12-24T12:17:09;96269.28;;;9.65;70.19
45345;BME280;31078;48.304;11.896;2022-12-24T12:19:43;96279.53;;;9.68;70.34
45345;BME280;31078;48.304;11.896;2022-12-24T12:22:22;96278.28;;;9.75;70.71
45345;BME280;31078;48.304;11.896;2022-12-24T12:24:53;96288.53;;;9.78;70.32
45345;BME280;31078;48.304;11.896;2022-12-24T12:27:27;96286.94;;;9.85;70.63
45345;BME280;31078;48.304;11.896;2022-12-24T12:29:59;96291.13;;;9.83;70.46
45345;BME280;31078;48.304;11.896;2022-12-24T12:32:34;96300.69;;;9.72;71.18
45345;BME280;31078;48.304;11.896;2022-12-24T12:35:20;96296.00;;;9.63;71.82
45345;BME280;31078;48.304;11.896;2022-12-24T12:37:55;96295.31;;;9.58;72.21
45345;BME280;31078;48.304;11.896;2022-12-24T12:43:24;96300.84;;;9.44;73.08
45345;BME280;31078;48.304;11.896;2022-12-24T12:45:57;96298.91;;;9.45;73.01
45345;BME280;31078;48.304;11.896;2022-12-24T12:48:52;96295.25;;;9.40;72.62
45345;BME280;31078;48.304;11.896;2022-12-24T12:51:25;96313.94;;;9.42;71.63
45345;BME280;31078;48.304;11.896;2022-12-24T12:54:11;96306.13;;;9.40;71.81
45345;BME280;31078;48.304;11.896;2022-12-24T12:56:46;96305.47;;;9.44;71.54
45345;BME280;31078;48.304;11.896;2022-12-24T12:59:18;96302.75;;;9.44;71.66
45345;BME280;31078;48.304;11.896;2022-12-24T13:01:51;96318.47;;;9.47;72.20
45345;BME280;31078;48.304;11.896;2022-12-24T13:04:57;96306.00;;;9.46;72.75
45345;BME280;31078;48.304;11.896;2022-12-24T13:10:47;96310.38;;;9.33;73.91
45345;BME280;31078;48.304;11.896;2022-12-24T13:13:42;96303.00;;;9.25;73.80
45345;BME280;31078;48.304;11.896;2022-12-24T13:16:19;96303.16;;;9.28;73.13